sensor_id;sensor_type;location;lat;lon;timestamp;temperature;humidity
1391;DHT22;690;51.454;7.194;2023-12-22T00:01:31;3.70;99.90
1391;DHT22;690;51.454;7.194;2023-12-22T00:03:59;3.70;99.90
1391;DHT22;690;51.454;7.194;2023-12-22T00:06:27;3.70;99.90
1391;DHT22;690;51.454;7.194;2023-12-22T00:08:54;3.60;99.90
1391;DHT22;690;51.454;7.194;2023-12-22T00:11:21;3.60;99.90
1391;DHT22;690;51.454;7.194;2023-12-22T00:13:48;3.60;99.90
1391;DHT22;690;51.454;7.194;2023-12-22T00:16:15;3.60;99.90
1391;DHT22;690;51.454;7.194;2023-12-22T00:18:42;3.50;99.90
1391;DHT22;690;51.454;7.194;2023-12-22T00:21:10;3.40;99.90
1391;DHT22;690;51.454;7.194;2023-12-22T00:23:38;3.40;99.90
1391;DHT22;690;51.454;7.194;2023-12-22T00:26:05;3.30;99.90
1391;DHT22;690;51.454;7.194;2023-12-22T00:28:32;3.40;99.90
1391;DHT22;690;51.454;7.194;2023-12-22T00:30:59;3.40;99.90
1391;DHT22;690;51.454;7.194;2023-12-22T00:33:26;3.40;99.90
1391;DHT22;690;51.454;7.194;2023-12-22T00:35:53;3.40;99.90
1391;DHT22;690;51.454;7.194;2023-12-22T00:38:19;3.40;99.90
1391;DHT22;690;51.454;7.194;2023-12-22T00:40:48;3.40;99.90
1391;DHT22;690;51.454;7.194;2023-12-22T00:43:14;3.30;99.90
1391;DHT22;690;51.454;7.194;2023-12-22T00:45:41;3.40;99.90
1391;DHT22;690;51.454;7.194;2023-12-22T00:48:08;3.40;99.90
1391;DHT22;690;51.454;7.194;2023-12-22T00:50:35;3.30;99.90
1391;DHT22;690;51.454;7.194;2023-12-22T00:53:02;3.30;1.00
1391;DHT22;690;51.454;7.194;2023-12-22T00:55:29;3.40;1.00
1391;DHT22;690;51.454;7.194;2023-12-22T00:57:57;3.40;1.00
1391;DHT22;690;51.454;7.194;2023-12-22T01:00:24;3.30;1.00
1391;DHT22;690;51.454;7.194;2023-12-22T01:02:51;3.40;1.00
1391;DHT22;690;51.454;7.194;2023-12-22T01:05:20;3.40;1.00
1391;DHT22;690;51.454;7.194;2023-12-22T01:07:49;3.40;1.00
1391;DHT22;690;51.454;7.194;2023-12-22T01:10:16;3.40;1.00
1391;DHT22;690;51.454;7.194;2023-12-22T01:12:43;3.30;1.00
1391;DHT22;690;51.454;7.194;2023-12-22T01:15:11;3.30;1.00
1391;DHT22;690;51.454;7.194;2023-12-22T01:17:38;3.40;1.00
1391;DHT22;690;51.454;7.194;2023-12-22T01:20:05;3.40;1.00
1391;DHT22;690;51.454;7.194;2023-12-22T01:22:33;3.40;1.00
1391;DHT22;690;51.454;7.194;2023-12-22T01:25:04;3.40;1.00
1391;DHT22;690;51.454;7.194;2023-12-22T01:27:31;3.40;1.00
1391;DHT22;690;51.454;7.194;2023-12-22T01:29:58;3.40;69.00
1391;DHT22;690;51.454;7.194;2023-12-22T01:32:26;3.50;44.00
1391;DHT22;690;51.454;7.194;2023-12-22T01:34:58;3.60;9.70
1391;DHT22;690;51.454;7.194;2023-12-22T01:37:29;3.70;1.00
1391;DHT22;690;51.454;7.194;2023-12-22T01:39:56;3.80;1.00
1391;DHT22;690;51.454;7.194;2023-12-22T01:42:23;3.90;1.00
1391;DHT22;690;51.454;7.194;2023-12-22T01:44:50;3.90;1.00
1391;DHT22;690;51.454;7.194;2023-12-22T01:47:17;3.80;1.00
1391;DHT22;690;51.454;7.194;2023-12-22T01:49:46;3.90;1.00
1391;DHT22;690;51.454;7.194;2023-12-22T01:52:13;3.90;1.00
1391;DHT22;690;51.454;7.194;2023-12-22T01:54:40;4.00;1.00
1391;DHT22;690;51.454;7.194;2023-12-22T01:57:07;4.00;1.00
1391;DHT22;690;51.454;7.194;2023-12-22T01:59:35;4.00;99.90
1391;DHT22;690;51.454;7.194;2023-12-22T02:02:02;4.10;99.90
1391;DHT22;690;51.454;7.194;2023-12-22T02:04:30;4.20;99.90
1391;DHT22;690;51.454;7.194;2023-12-22T02:07:01;4.10;99.90
1391;DHT22;690;51.454;7.194;2023-12-22T02:09:28;4.00;99.90
1391;DHT22;690;51.454;7.194;2023-12-22T02:11:56;4.00;88.10
1391;DHT22;690;51.454;7.194;2023-12-22T02:14:23;3.90;15.10
1391;DHT22;690;51.454;7.194;2023-12-22T02:16:53;4.00;1.00
1391;DHT22;690;51.454;7.194;2023-12-22T02:19:30;3.80;1.00
1391;DHT22;690;51.454;7.194;2023-12-22T02:22:09;3.80;1.00
1391;DHT22;690;51.454;7.194;2023-12-22T02:24:38;3.60;1.00
1391;DHT22;690;51.454;7.194;2023-12-22T02:27:09;3.60;1.00
1391;DHT22;690;51.454;7.194;2023-12-22T02:29:42;3.60;1.00
1391;DHT22;690;51.454;7.194;2023-12-22T02:32:16;3.60;1.00
1391;DHT22;690;51.454;7.194;2023-12-22T02:34:47;3.60;1.00
1391;DHT22;690;51.454;7.194;2023-12-22T02:37:16;3.70;1.00
1391;DHT22;690;51.454;7.194;2023-12-22T02:39:45;3.60;1.00
1391;DHT22;690;51.454;7.194;2023-12-22T02:42:13;3.50;1.00
1391;DHT22;690;51.454;7.194;2023-12-22T02:44:40;3.40;2.40
1391;DHT22;690;51.454;7.194;2023-12-22T02:47:07;3.30;27.40
1391;DHT22;690;51.454;7.194;2023-12-22T02:49:33;3.20;57.70
1391;DHT22;690;51.454;7.194;2023-12-22T02:52:00;3.30;97.00
1391;DHT22;690;51.454;7.194;2023-12-22T02:54:27;3.40;97.10
1391;DHT22;690;51.454;7.194;2023-12-22T02:56:58;3.40;91.50
1391;DHT22;690;51.454;7.194;2023-12-22T02:59:25;3.40;96.90
1391;DHT22;690;51.454;7.194;2023-12-22T03:01:54;3.30;99.90
1391;DHT22;690;51.454;7.194;2023-12-22T03:04:21;3.30;99.90
1391;DHT22;690;51.454;7.194;2023-12-22T03:06:47;3.20;99.90
1391;DHT22;690;51.454;7.194;2023-12-22T03:09:14;3.20;99.90
1391;DHT22;690;51.454;7.194;2023-12-22T03:11:41;3.20;99.90
1391;DHT22;690;51.454;7.194;2023-12-22T03:14:09;3.20;99.90
1391;DHT22;690;51.454;7.194;2023-12-22T03:16:36;3.30;99.90
1391;DHT22;690;51.454;7.194;2023-12-22T03:19:03;3.40;99.90
1391;DHT22;690;51.454;7.194;2023-12-22T03:21:30;3.50;99.90
1391;DHT22;690;51.454;7.194;2023-12-22T03:23:57;3.60;99.90
1391;DHT22;690;51.454;7.194;2023-12-22T03:26:26;3.50;78.30
1391;DHT22;690;51.454;7.194;2023-12-22T03:28:53;3.40;66.90
1391;DHT22;690;51.454;7.194;2023-12-22T03:31:22;3.60;61.10
1391;DHT22;690;51.454;7.194;2023-12-22T03:33:48;3.60;54.80
1391;DHT22;690;51.454;7.194;2023-12-22T03:36:15;3.70;35.70
1391;DHT22;690;51.454;7.194;2023-12-22T03:38:42;3.60;63.70
1391;DHT22;690;51.454;7.194;2023-12-22T03:41:09;3.70;97.00
1391;DHT22;690;51.454;7.194;2023-12-22T03:43:36;3.80;96.50
1391;DHT22;690;51.454;7.194;2023-12-22T03:46:03;3.70;99.90
1391;DHT22;690;51.454;7.194;2023-12-22T03:48:31;3.70;99.90
1391;DHT22;690;51.454;7.194;2023-12-22T03:50:58;3.60;99.90
1391;DHT22;690;51.454;7.194;2023-12-22T03:53:25;3.60;99.90
1391;DHT22;690;51.454;7.194;2023-12-22T03:55:52;3.70;99.90
1391;DHT22;690;51.454;7.194;2023-12-22T03:58:19;3.80;99.90
1391;DHT22;690;51.454;7.194;2023-12-22T04:00:46;3.90;99.90
1391;DHT22;690;51.454;7.194;2023-12-22T04:03:13;3.80;99.90
1391;DHT22;690;51.454;7.194;2023-12-22T04:05:41;3.70;99.90
1391;DHT22;690;51.454;7.194;2023-12-22T04:08:08;3.60;99.90
1391;DHT22;690;51.454;7.194;2023-12-22T04:10:35;3.30;1.00
1391;DHT22;690;51.454;7.194;2023-12-22T04:13:02;2.90;1.00
1391;DHT22;690;51.454;7.194;2023-12-22T04:15:28;2.50;1.00
1391;DHT22;690;51.454;7.194;2023-12-22T04:17:55;2.20;99.90
1391;DHT22;690;51.454;7.194;2023-12-22T04:20:22;2.10;1.00
1391;DHT22;690;51.454;7.194;2023-12-22T04:22:50;2.10;99.90
1391;DHT22;690;51.454;7.194;2023-12-22T04:25:17;2.00;99.90
1391;DHT22;690;51.454;7.194;2023-12-22T04:27:44;1.90;1.00
1391;DHT22;690;51.454;7.194;2023-12-22T04:30:12;1.80;1.00
1391;DHT22;690;51.454;7.194;2023-12-22T04:32:39;1.80;99.90
1391;DHT22;690;51.454;7.194;2023-12-22T04:35:06;1.80;99.90
1391;DHT22;690;51.454;7.194;2023-12-22T04:37:33;1.80;1.00
1391;DHT22;690;51.454;7.194;2023-12-22T04:40:02;1.80;1.00
1391;DHT22;690;51.454;7.194;2023-12-22T04:42:29;1.80;1.00
1391;DHT22;690;51.454;7.194;2023-12-22T04:44:56;1.80;99.90
1391;DHT22;690;51.454;7.194;2023-12-22T04:47:23;1.80;6.50
1391;DHT22;690;51.454;7.194;2023-12-22T04:49:50;1.90;99.90
1391;DHT22;690;51.454;7.194;2023-12-22T04:52:17;1.90;99.90
1391;DHT22;690;51.454;7.194;2023-12-22T04:54:44;2.10;99.90
1391;DHT22;690;51.454;7.194;2023-12-22T04:57:12;2.10;99.90
1391;DHT22;690;51.454;7.194;2023-12-22T04:59:39;2.20;1.00
1391;DHT22;690;51.454;7.194;2023-12-22T05:02:06;2.20;1.00
1391;DHT22;690;51.454;7.194;2023-12-22T05:04:33;2.20;96.20
1391;DHT22;690;51.454;7.194;2023-12-22T05:07:00;2.20;99.90
1391;DHT22;690;51.454;7.194;2023-12-22T05:09:32;2.30;99.90
1391;DHT22;690;51.454;7.194;2023-12-22T05:11:59;2.40;1.00
1391;DHT22;690;51.454;7.194;2023-12-22T05:14:27;2.50;1.00
1391;DHT22;690;51.454;7.194;2023-12-22T05:16:54;2.50;1.00
1391;DHT22;690;51.454;7.194;2023-12-22T05:19:22;2.60;99.90
1391;DHT22;690;51.454;7.194;2023-12-22T05:21:49;2.60;99.90
1391;DHT22;690;51.454;7.194;2023-12-22T05:24:18;2.60;94.70
1391;DHT22;690;51.454;7.194;2023-12-22T05:26:45;2.70;1.00
1391;DHT22;690;51.454;7.194;2023-12-22T05:29:11;2.70;1.00
1391;DHT22;690;51.454;7.194;2023-12-22T05:31:40;2.80;99.90
1391;DHT22;690;51.454;7.194;2023-12-22T05:34:07;2.80;99.90
1391;DHT22;690;51.454;7.194;2023-12-22T05:36:35;2.80;99.90
1391;DHT22;690;51.454;7.194;2023-12-22T05:39:03;2.90;99.90
1391;DHT22;690;51.454;7.194;2023-12-22T05:41:30;2.90;99.90
1391;DHT22;690;51.454;7.194;2023-12-22T05:43:56;2.90;1.00
1391;DHT22;690;51.454;7.194;2023-12-22T05:46:23;2.90;1.00
1391;DHT22;690;51.454;7.194;2023-12-22T05:48:52;2.80;1.00
1391;DHT22;690;51.454;7.194;2023-12-22T05:51:18;2.80;1.00
1391;DHT22;690;51.454;7.194;2023-12-22T05:53:45;2.90;14.00
1391;DHT22;690;51.454;7.194;2023-12-22T05:56:18;3.00;1.00
1391;DHT22;690;51.454;7.194;2023-12-22T05:58:45;3.00;1.00
1391;DHT22;690;51.454;7.194;2023-12-22T06:01:14;3.00;99.90
1391;DHT22;690;51.454;7.194;2023-12-22T06:03:42;3.10;99.90
1391;DHT22;690;51.454;7.194;2023-12-22T06:06:10;3.00;99.90
1391;DHT22;690;51.454;7.194;2023-12-22T06:08:37;2.90;1.00
1391;DHT22;690;51.454;7.194;2023-12-22T06:11:04;3.10;1.00
1391;DHT22;690;51.454;7.194;2023-12-22T06:13:31;3.20;1.00
1391;DHT22;690;51.454;7.194;2023-12-22T06:15:58;3.20;99.90
1391;DHT22;690;51.454;7.194;2023-12-22T06:18:26;3.20;99.90
1391;DHT22;690;51.454;7.194;2023-12-22T06:20:53;3.10;1.00
1391;DHT22;690;51.454;7.194;2023-12-22T06:23:22;3.10;1.00
1391;DHT22;690;51.454;7.194;2023-12-22T06:25:48;3.10;1.00
1391;DHT22;690;51.454;7.194;2023-12-22T06:28:15;3.20;1.00
1391;DHT22;690;51.454;7.194;2023-12-22T06:30:43;3.30;99.90
1391;DHT22;690;51.454;7.194;2023-12-22T06:33:12;3.30;99.90
1391;DHT22;690;51.454;7.194;2023-12-22T06:35:39;3.30;99.90
1391;DHT22;690;51.454;7.194;2023-12-22T06:38:07;3.30;99.90
1391;DHT22;690;51.454;7.194;2023-12-22T06:40:35;3.30;99.90
1391;DHT22;690;51.454;7.194;2023-12-22T06:43:03;3.30;1.00
1391;DHT22;690;51.454;7.194;2023-12-22T06:45:30;3.30;99.90
1391;DHT22;690;51.454;7.194;2023-12-22T06:47:57;3.40;99.90
1391;DHT22;690;51.454;7.194;2023-12-22T06:50:24;3.40;99.90
1391;DHT22;690;51.454;7.194;2023-12-22T06:52:50;3.40;99.90
1391;DHT22;690;51.454;7.194;2023-12-22T06:55:17;3.40;99.90
1391;DHT22;690;51.454;7.194;2023-12-22T06:57:46;3.40;99.90
1391;DHT22;690;51.454;7.194;2023-12-22T07:00:14;3.50;99.90
1391;DHT22;690;51.454;7.194;2023-12-22T07:02:41;3.50;99.90
1391;DHT22;690;51.454;7.194;2023-12-22T07:05:29;3.50;99.90
1391;DHT22;690;51.454;7.194;2023-12-22T07:07:56;3.50;99.90
1391;DHT22;690;51.454;7.194;2023-12-22T07:10:23;3.60;99.90
1391;DHT22;690;51.454;7.194;2023-12-22T07:12:52;3.60;99.90
1391;DHT22;690;51.454;7.194;2023-12-22T07:15:18;3.60;99.90
1391;DHT22;690;51.454;7.194;2023-12-22T07:17:46;3.60;99.90
1391;DHT22;690;51.454;7.194;2023-12-22T07:20:13;3.60;99.90
1391;DHT22;690;51.454;7.194;2023-12-22T07:22:39;3.60;99.90
1391;DHT22;690;51.454;7.194;2023-12-22T07:25:07;3.60;99.90
1391;DHT22;690;51.454;7.194;2023-12-22T07:27:34;3.70;99.90
1391;DHT22;690;51.454;7.194;2023-12-22T07:30:03;3.70;99.90
1391;DHT22;690;51.454;7.194;2023-12-22T07:32:30;3.70;99.90
1391;DHT22;690;51.454;7.194;2023-12-22T07:34:57;3.70;99.90
1391;DHT22;690;51.454;7.194;2023-12-22T07:37:24;3.70;99.90
1391;DHT22;690;51.454;7.194;2023-12-22T07:39:51;3.70;99.90
1391;DHT22;690;51.454;7.194;2023-12-22T07:42:18;3.70;99.90
1391;DHT22;690;51.454;7.194;2023-12-22T07:44:44;3.80;99.90
1391;DHT22;690;51.454;7.194;2023-12-22T07:47:13;3.80;99.90
1391;DHT22;690;51.454;7.194;2023-12-22T07:49:39;3.80;99.90
1391;DHT22;690;51.454;7.194;2023-12-22T07:52:06;3.90;99.90
1391;DHT22;690;51.454;7.194;2023-12-22T07:54:33;3.90;99.90
1391;DHT22;690;51.454;7.194;2023-12-22T07:57:00;3.90;99.90
1391;DHT22;690;51.454;7.194;2023-12-22T07:59:27;3.90;99.90
1391;DHT22;690;51.454;7.194;2023-12-22T08:01:54;4.00;99.90
1391;DHT22;690;51.454;7.194;2023-12-22T08:04:22;4.00;99.90
1391;DHT22;690;51.454;7.194;2023-12-22T08:06:49;4.00;99.90
1391;DHT22;690;51.454;7.194;2023-12-22T08:09:17;4.10;99.90
1391;DHT22;690;51.454;7.194;2023-12-22T08:11:44;4.10;99.90
1391;DHT22;690;51.454;7.194;2023-12-22T08:14:12;4.20;99.90
1391;DHT22;690;51.454;7.194;2023-12-22T08:16:39;4.20;99.90
1391;DHT22;690;51.454;7.194;2023-12-22T08:19:06;4.30;99.90
1391;DHT22;690;51.454;7.194;2023-12-22T08:21:34;4.40;99.90
1391;DHT22;690;51.454;7.194;2023-12-22T08:24:01;4.40;99.90
1391;DHT22;690;51.454;7.194;2023-12-22T08:26:28;4.50;99.90
1391;DHT22;690;51.454;7.194;2023-12-22T08:28:55;4.60;52.90
1391;DHT22;690;51.454;7.194;2023-12-22T08:31:22;4.70;99.90
1391;DHT22;690;51.454;7.194;2023-12-22T08:33:49;4.80;42.20
1391;DHT22;690;51.454;7.194;2023-12-22T08:36:15;4.90;1.00
1391;DHT22;690;51.454;7.194;2023-12-22T08:38:44;5.00;1.00
1391;DHT22;690;51.454;7.194;2023-12-22T08:41:11;5.10;1.00
1391;DHT22;690;51.454;7.194;2023-12-22T08:43:40;5.10;1.00
1391;DHT22;690;51.454;7.194;2023-12-22T08:46:07;5.10;29.10
1391;DHT22;690;51.454;7.194;2023-12-22T08:48:35;5.30;1.00
1391;DHT22;690;51.454;7.194;2023-12-22T08:51:02;5.30;1.00
1391;DHT22;690;51.454;7.194;2023-12-22T08:53:29;5.30;1.00
1391;DHT22;690;51.454;7.194;2023-12-22T08:56:00;5.40;1.00
1391;DHT22;690;51.454;7.194;2023-12-22T08:58:27;5.50;1.00
1391;DHT22;690;51.454;7.194;2023-12-22T09:00:54;5.60;1.00
1391;DHT22;690;51.454;7.194;2023-12-22T09:03:21;5.60;99.90
1391;DHT22;690;51.454;7.194;2023-12-22T09:05:49;5.70;99.90
1391;DHT22;690;51.454;7.194;2023-12-22T09:08:15;5.70;99.90
1391;DHT22;690;51.454;7.194;2023-12-22T09:10:42;5.70;99.90
1391;DHT22;690;51.454;7.194;2023-12-22T09:13:12;5.70;99.90
1391;DHT22;690;51.454;7.194;2023-12-22T09:15:38;5.80;99.90
1391;DHT22;690;51.454;7.194;2023-12-22T09:18:07;5.80;99.90
1391;DHT22;690;51.454;7.194;2023-12-22T09:20:33;5.80;99.90
1391;DHT22;690;51.454;7.194;2023-12-22T09:23:00;5.80;99.90
1391;DHT22;690;51.454;7.194;2023-12-22T09:25:31;5.80;99.90
1391;DHT22;690;51.454;7.194;2023-12-22T09:27:57;5.80;99.90
1391;DHT22;690;51.454;7.194;2023-12-22T09:30:26;5.80;99.90
1391;DHT22;690;51.454;7.194;2023-12-22T09:32:52;5.70;99.90
1391;DHT22;690;51.454;7.194;2023-12-22T09:35:19;5.70;99.90
1391;DHT22;690;51.454;7.194;2023-12-22T09:37:47;5.70;99.90
1391;DHT22;690;51.454;7.194;2023-12-22T09:40:14;5.60;99.90
1391;DHT22;690;51.454;7.194;2023-12-22T09:42:41;5.60;99.90
1391;DHT22;690;51.454;7.194;2023-12-22T09:45:11;5.60;9.00
1391;DHT22;690;51.454;7.194;2023-12-22T09:48:00;5.60;1.00
1391;DHT22;690;51.454;7.194;2023-12-22T09:50:27;5.50;1.00
1391;DHT22;690;51.454;7.194;2023-12-22T09:52:54;5.40;91.60
1391;DHT22;690;51.454;7.194;2023-12-22T09:55:22;5.40;99.90
1391;DHT22;690;51.454;7.194;2023-12-22T09:57:49;5.40;99.90
1391;DHT22;690;51.454;7.194;2023-12-22T10:00:17;5.40;99.90
1391;DHT22;690;51.454;7.194;2023-12-22T10:02:45;5.40;99.90
1391;DHT22;690;51.454;7.194;2023-12-22T10:05:13;5.30;99.90
1391;DHT22;690;51.454;7.194;2023-12-22T10:07:42;5.20;99.90
1391;DHT22;690;51.454;7.194;2023-12-22T10:10:11;5.20;1.00
1391;DHT22;690;51.454;7.194;2023-12-22T10:12:41;5.10;1.00
1391;DHT22;690;51.454;7.194;2023-12-22T10:15:09;5.10;1.00
1391;DHT22;690;51.454;7.194;2023-12-22T10:17:39;5.00;1.00
1391;DHT22;690;51.454;7.194;2023-12-22T10:20:07;5.10;99.90
1391;DHT22;690;51.454;7.194;2023-12-22T10:22:35;5.10;99.90
1391;DHT22;690;51.454;7.194;2023-12-22T10:25:02;5.20;1.00
1391;DHT22;690;51.454;7.194;2023-12-22T10:27:31;5.30;1.00
1391;DHT22;690;51.454;7.194;2023-12-22T10:29:58;5.40;99.90
1391;DHT22;690;51.454;7.194;2023-12-22T10:32:25;5.40;99.90
1391;DHT22;690;51.454;7.194;2023-12-22T10:34:53;5.40;99.90
1391;DHT22;690;51.454;7.194;2023-12-22T10:37:20;5.50;99.90
1391;DHT22;690;51.454;7.194;2023-12-22T10:39:52;5.50;99.90
1391;DHT22;690;51.454;7.194;2023-12-22T10:42:19;5.50;99.90
1391;DHT22;690;51.454;7.194;2023-12-22T10:44:46;5.50;99.90
1391;DHT22;690;51.454;7.194;2023-12-22T10:47:13;5.50;99.90
1391;DHT22;690;51.454;7.194;2023-12-22T10:49:40;5.50;99.90
1391;DHT22;690;51.454;7.194;2023-12-22T10:52:11;5.50;1.00
1391;DHT22;690;51.454;7.194;2023-12-22T10:54:41;5.40;1.00
1391;DHT22;690;51.454;7.194;2023-12-22T10:57:10;5.40;1.00
1391;DHT22;690;51.454;7.194;2023-12-22T10:59:40;5.40;96.20
1391;DHT22;690;51.454;7.194;2023-12-22T11:02:15;5.40;99.90
1391;DHT22;690;51.454;7.194;2023-12-22T11:04:49;5.40;1.00
1391;DHT22;690;51.454;7.194;2023-12-22T11:07:23;5.40;99.90
1391;DHT22;690;51.454;7.194;2023-12-22T11:09:51;5.40;1.00
1391;DHT22;690;51.454;7.194;2023-12-22T11:12:22;5.40;1.00
1391;DHT22;690;51.454;7.194;2023-12-22T11:14:50;5.50;1.00
1391;DHT22;690;51.454;7.194;2023-12-22T11:17:19;5.50;99.90
1391;DHT22;690;51.454;7.194;2023-12-22T11:19:49;5.50;1.00
1391;DHT22;690;51.454;7.194;2023-12-22T11:22:17;5.60;1.00
1391;DHT22;690;51.454;7.194;2023-12-22T11:24:46;5.70;99.90
1391;DHT22;690;51.454;7.194;2023-12-22T11:27:16;5.60;99.90
1391;DHT22;690;51.454;7.194;2023-12-22T11:29:47;5.60;92.70
1391;DHT22;690;51.454;7.194;2023-12-22T11:32:16;5.40;99.90
1391;DHT22;690;51.454;7.194;2023-12-22T11:34:44;5.40;1.00
1391;DHT22;690;51.454;7.194;2023-12-22T11:37:11;5.50;99.90
1391;DHT22;690;51.454;7.194;2023-12-22T11:39:39;5.40;99.90
1391;DHT22;690;51.454;7.194;2023-12-22T11:42:08;5.40;99.90
1391;DHT22;690;51.454;7.194;2023-12-22T11:44:36;5.20;99.90
1391;DHT22;690;51.454;7.194;2023-12-22T11:47:05;5.10;1.00
1391;DHT22;690;51.454;7.194;2023-12-22T11:49:33;5.10;1.00
1391;DHT22;690;51.454;7.194;2023-12-22T11:52:09;5.20;1.00
1391;DHT22;690;51.454;7.194;2023-12-22T11:54:47;5.20;1.00
1391;DHT22;690;51.454;7.194;2023-12-22T11:57:35;5.20;1.00
1391;DHT22;690;51.454;7.194;2023-12-22T12:00:05;5.30;1.00
1391;DHT22;690;51.454;7.194;2023-12-22T12:02:35;5.30;1.00
1391;DHT22;690;51.454;7.194;2023-12-22T12:05:04;5.40;1.00
1391;DHT22;690;51.454;7.194;2023-12-22T12:07:43;5.50;1.00
1391;DHT22;690;51.454;7.194;2023-12-22T12:10:12;5.60;1.00
1391;DHT22;690;51.454;7.194;2023-12-22T12:12:40;5.70;1.00
1391;DHT22;690;51.454;7.194;2023-12-22T12:15:09;5.60;1.00
1391;DHT22;690;51.454;7.194;2023-12-22T12:17:41;5.60;1.00
1391;DHT22;690;51.454;7.194;2023-12-22T12:20:09;5.70;1.00
1391;DHT22;690;51.454;7.194;2023-12-22T12:22:36;5.70;1.00
1391;DHT22;690;51.454;7.194;2023-12-22T12:25:07;5.70;1.00
1391;DHT22;690;51.454;7.194;2023-12-22T12:27:35;5.70;1.00
1391;DHT22;690;51.454;7.194;2023-12-22T12:30:11;5.70;1.00
1391;DHT22;690;51.454;7.194;2023-12-22T12:32:42;5.60;74.20
1391;DHT22;690;51.454;7.194;2023-12-22T12:35:10;5.60;99.90
1391;DHT22;690;51.454;7.194;2023-12-22T12:37:37;5.50;99.90
1391;DHT22;690;51.454;7.194;2023-12-22T12:40:07;5.50;99.90
1391;DHT22;690;51.454;7.194;2023-12-22T12:42:36;5.50;99.90
1391;DHT22;690;51.454;7.194;2023-12-22T12:45:04;5.50;1.00
1391;DHT22;690;51.454;7.194;2023-12-22T12:47:31;5.70;1.00
1391;DHT22;690;51.454;7.194;2023-12-22T12:50:00;5.70;1.00
1391;DHT22;690;51.454;7.194;2023-12-22T12:52:28;5.70;99.90
1391;DHT22;690;51.454;7.194;2023-12-22T12:54:55;5.70;1.00
1391;DHT22;690;51.454;7.194;2023-12-22T12:57:24;5.70;1.00
1391;DHT22;690;51.454;7.194;2023-12-22T12:59:51;5.80;1.00
1391;DHT22;690;51.454;7.194;2023-12-22T13:02:19;5.90;1.00
1391;DHT22;690;51.454;7.194;2023-12-22T13:04:46;6.00;1.00
1391;DHT22;690;51.454;7.194;2023-12-22T13:07:23;6.10;1.00
1391;DHT22;690;51.454;7.194;2023-12-22T13:09:50;6.20;1.00
1391;DHT22;690;51.454;7.194;2023-12-22T13:12:19;6.10;1.00
1391;DHT22;690;51.454;7.194;2023-12-22T13:14:46;6.10;99.90
1391;DHT22;690;51.454;7.194;2023-12-22T13:17:13;6.20;99.90
1391;DHT22;690;51.454;7.194;2023-12-22T13:19:41;6.20;99.90
1391;DHT22;690;51.454;7.194;2023-12-22T13:22:08;6.30;1.00
1391;DHT22;690;51.454;7.194;2023-12-22T13:24:37;6.30;1.00
1391;DHT22;690;51.454;7.194;2023-12-22T13:27:04;6.40;99.90
1391;DHT22;690;51.454;7.194;2023-12-22T13:29:42;6.40;99.90
1391;DHT22;690;51.454;7.194;2023-12-22T13:32:15;6.30;99.90
1391;DHT22;690;51.454;7.194;2023-12-22T13:34:50;6.30;99.90
1391;DHT22;690;51.454;7.194;2023-12-22T13:37:17;6.40;99.90
1391;DHT22;690;51.454;7.194;2023-12-22T13:39:46;6.40;1.00
1391;DHT22;690;51.454;7.194;2023-12-22T13:42:16;6.40;99.90
1391;DHT22;690;51.454;7.194;2023-12-22T13:44:45;6.40;1.00
1391;DHT22;690;51.454;7.194;2023-12-22T13:47:13;6.40;1.00
1391;DHT22;690;51.454;7.194;2023-12-22T13:49:41;6.50;1.00
1391;DHT22;690;51.454;7.194;2023-12-22T13:52:24;6.50;1.00
1391;DHT22;690;51.454;7.194;2023-12-22T13:54:53;6.50;1.00
1391;DHT22;690;51.454;7.194;2023-12-22T13:57:22;6.60;1.00
1391;DHT22;690;51.454;7.194;2023-12-22T13:59:52;6.70;1.00
1391;DHT22;690;51.454;7.194;2023-12-22T14:02:20;6.70;1.00
1391;DHT22;690;51.454;7.194;2023-12-22T14:04:48;6.70;1.00
1391;DHT22;690;51.454;7.194;2023-12-22T14:07:15;6.60;1.00
1391;DHT22;690;51.454;7.194;2023-12-22T14:09:42;6.50;70.00
1391;DHT22;690;51.454;7.194;2023-12-22T14:12:11;6.50;99.90
1391;DHT22;690;51.454;7.194;2023-12-22T14:14:38;6.70;1.00
1391;DHT22;690;51.454;7.194;2023-12-22T14:17:04;6.60;1.00
1391;DHT22;690;51.454;7.194;2023-12-22T14:19:31;6.70;1.00
1391;DHT22;690;51.454;7.194;2023-12-22T14:21:58;6.70;99.90
1391;DHT22;690;51.454;7.194;2023-12-22T14:24:25;6.80;99.90
1391;DHT22;690;51.454;7.194;2023-12-22T14:26:52;6.80;1.00
1391;DHT22;690;51.454;7.194;2023-12-22T14:29:23;6.80;1.00
1391;DHT22;690;51.454;7.194;2023-12-22T14:31:50;7.00;1.00
1391;DHT22;690;51.454;7.194;2023-12-22T14:34:17;7.10;99.90
1391;DHT22;690;51.454;7.194;2023-12-22T14:36:44;7.00;99.90
1391;DHT22;690;51.454;7.194;2023-12-22T14:39:11;7.10;99.90
1391;DHT22;690;51.454;7.194;2023-12-22T14:41:39;7.10;1.00
1391;DHT22;690;51.454;7.194;2023-12-22T14:44:06;6.90;1.00
1391;DHT22;690;51.454;7.194;2023-12-22T14:46:37;7.00;23.20
1391;DHT22;690;51.454;7.194;2023-12-22T14:49:04;7.00;1.00
1391;DHT22;690;51.454;7.194;2023-12-22T14:51:35;7.00;1.00
1391;DHT22;690;51.454;7.194;2023-12-22T14:54:03;7.00;1.00
1391;DHT22;690;51.454;7.194;2023-12-22T14:56:29;7.00;1.00
1391;DHT22;690;51.454;7.194;2023-12-22T14:58:56;7.10;1.00
1391;DHT22;690;51.454;7.194;2023-12-22T15:01:23;7.20;99.90
1391;DHT22;690;51.454;7.194;2023-12-22T15:03:51;7.10;99.90
1391;DHT22;690;51.454;7.194;2023-12-22T15:06:19;7.20;99.90
1391;DHT22;690;51.454;7.194;2023-12-22T15:08:46;7.10;99.90
1391;DHT22;690;51.454;7.194;2023-12-22T15:11:13;7.00;99.90
1391;DHT22;690;51.454;7.194;2023-12-22T15:13:39;6.90;99.90
1391;DHT22;690;51.454;7.194;2023-12-22T15:16:07;6.80;1.00
1391;DHT22;690;51.454;7.194;2023-12-22T15:18:34;6.80;1.00
1391;DHT22;690;51.454;7.194;2023-12-22T15:21:02;6.70;1.00
1391;DHT22;690;51.454;7.194;2023-12-22T15:23:29;6.70;99.90
1391;DHT22;690;51.454;7.194;2023-12-22T15:25:56;6.70;99.90
1391;DHT22;690;51.454;7.194;2023-12-22T15:28:23;6.70;1.00
1391;DHT22;690;51.454;7.194;2023-12-22T15:30:51;6.70;99.90
1391;DHT22;690;51.454;7.194;2023-12-22T15:33:18;6.70;99.90
1391;DHT22;690;51.454;7.194;2023-12-22T15:35:45;6.60;99.90
1391;DHT22;690;51.454;7.194;2023-12-22T15:38:15;6.60;99.90
1391;DHT22;690;51.454;7.194;2023-12-22T15:40:42;6.50;99.90
1391;DHT22;690;51.454;7.194;2023-12-22T15:43:09;6.50;99.90
1391;DHT22;690;51.454;7.194;2023-12-22T15:45:36;6.50;1.00
1391;DHT22;690;51.454;7.194;2023-12-22T15:48:03;6.50;99.90
1391;DHT22;690;51.454;7.194;2023-12-22T15:50:30;6.50;99.90
1391;DHT22;690;51.454;7.194;2023-12-22T15:52:57;6.50;99.90
1391;DHT22;690;51.454;7.194;2023-12-22T15:55:25;6.40;99.90
1391;DHT22;690;51.454;7.194;2023-12-22T15:57:52;6.30;1.00
1391;DHT22;690;51.454;7.194;2023-12-22T16:00:19;6.40;86.30
1391;DHT22;690;51.454;7.194;2023-12-22T16:02:46;6.40;1.00
1391;DHT22;690;51.454;7.194;2023-12-22T16:05:13;6.40;99.90
1391;DHT22;690;51.454;7.194;2023-12-22T16:07:40;6.40;1.00
1391;DHT22;690;51.454;7.194;2023-12-22T16:10:07;6.30;1.00
1391;DHT22;690;51.454;7.194;2023-12-22T16:12:37;6.40;17.80
1391;DHT22;690;51.454;7.194;2023-12-22T16:15:08;6.40;1.00
1391;DHT22;690;51.454;7.194;2023-12-22T16:17:35;6.30;99.90
1391;DHT22;690;51.454;7.194;2023-12-22T16:20:03;6.40;99.90
1391;DHT22;690;51.454;7.194;2023-12-22T16:22:29;6.60;99.90
1391;DHT22;690;51.454;7.194;2023-12-22T16:24:57;6.70;1.00
1391;DHT22;690;51.454;7.194;2023-12-22T16:27:24;6.70;99.90
1391;DHT22;690;51.454;7.194;2023-12-22T16:29:52;6.70;74.60
1391;DHT22;690;51.454;7.194;2023-12-22T16:32:19;6.70;1.00
1391;DHT22;690;51.454;7.194;2023-12-22T16:34:46;6.70;1.00
1391;DHT22;690;51.454;7.194;2023-12-22T16:37:15;6.80;1.00
1391;DHT22;690;51.454;7.194;2023-12-22T16:39:49;6.80;99.90
1391;DHT22;690;51.454;7.194;2023-12-22T16:42:16;6.80;1.00
1391;DHT22;690;51.454;7.194;2023-12-22T16:44:43;6.90;99.90
1391;DHT22;690;51.454;7.194;2023-12-22T16:47:11;6.80;1.00